Time;durP1;ratioP1;P1;durP2;ratioP2;P2;SDS_P1;SDS_P2;PMS_P1;PMS_P2;Temp;Humidity;BMP_temperature;BMP_pressure;BME280_temperature;BME280_humidity;BME280_pressure;Samples;Min_cycle;Max_cycle;Signal;HPM_P1;HPM_P2
2023/09/15 00:00:20;;;;;;;6.05;4.22;;;;;;;-145.69;71.05;52186.94;5110913;28;20953;-82
2023/09/15 00:02:47;;;;;;;5.75;3.83;;;;;;;-145.69;69.89;52141.41;5124905;28;20279;-82
2023/09/15 00:05:14;;;;;;;6.65;4.10;;;;;;;-145.69;70.16;52159.22;5112093;28;20551;-82
2023/09/15 00:07:42;;;;;;;5.60;3.88;;;;;;;-145.69;70.03;52127.53;5111509;28;20296;-81
2023/09/15 00:10:11;;;;;;;8.88;4.55;;;;;;;-145.69;70.26;52135.47;5128041;28;20211;-82
2023/09/15 00:12:38;;;;;;;5.10;3.78;;;;;;;-145.69;69.67;52155.25;5118084;27;20250;-81
2023/09/15 00:15:07;;;;;;;8.15;3.95;;;;;;;-145.69;69.23;52143.38;5112940;28;20201;-80
2023/09/15 00:17:35;;;;;;;7.15;3.67;;;;;;;-145.69;69.24;52177.03;5108375;28;20229;-81
2023/09/15 00:20:04;;;;;;;7.55;3.58;;;;;;;-145.69;69.24;52167.13;5112966;28;20779;-81
2023/09/15 00:22:33;;;;;;;4.35;3.60;;;;;;;-145.69;69.11;52159.22;5113517;28;20679;-81
2023/09/15 00:25:01;;;;;;;5.78;3.47;;;;;;;-145.69;69.04;52115.66;5111583;28;20197;-80
2023/09/15 00:27:28;;;;;;;4.50;3.25;;;;;;;-145.69;69.23;52119.63;5119755;28;20273;-81
2023/09/15 00:29:54;;;;;;;6.50;3.75;;;;;;;-145.69;68.81;52153.28;5126567;28;20200;-80
2023/09/15 00:32:21;;;;;;;8.55;3.55;;;;;;;-145.69;69.66;52151.28;5113993;28;20202;-81
2023/09/15 00:34:47;;;;;;;7.32;3.63;;;;;;;-145.69;69.60;52145.34;5116680;27;20614;-82
2023/09/15 00:37:14;;;;;;;5.72;3.75;;;;;;;-145.69;69.56;52155.25;5113051;28;20666;-81
2023/09/15 00:39:40;;;;;;;8.70;3.53;;;;;;;-145.69;69.59;52184.97;5111484;28;20217;-82
2023/09/15 00:42:11;;;;;;;6.07;3.95;;;;;;;-145.69;69.93;52163.19;5123629;27;20644;-82
2023/09/15 00:44:38;;;;;;;8.23;3.92;;;;;;;-145.69;69.41;52147.34;5112825;28;20200;-81
2023/09/15 00:47:05;;;;;;;6.30;3.92;;;;;;;-145.69;69.75;52169.13;5128269;28;20204;-82
2023/09/15 00:49:32;;;;;;;9.18;4.07;;;;;;;-145.69;69.56;52147.34;5118779;27;20194;-81
2023/09/15 00:51:59;;;;;;;8.38;3.85;;;;;;;-145.69;69.29;52171.09;5113139;28;20564;-83
2023/09/15 00:54:25;;;;;;;5.03;3.50;;;;;;;-145.69;69.73;52171.09;5112674;28;20258;-82
2023/09/15 00:56:52;;;;;;;6.72;4.25;;;;;;;-145.69;70.15;52159.22;5110526;28;20280;-82
2023/09/15 00:59:20;;;;;;;7.97;3.80;;;;;;;-145.69;69.91;52147.34;5113156;28;20337;-82
2023/09/15 01:01:48;;;;;;;6.50;3.90;;;;;;;-145.69;69.88;52165.16;5115659;28;20548;-83
2023/09/15 01:04:15;;;;;;;5.75;3.92;;;;;;;-145.69;70.16;52159.22;5125630;27;20216;-82
2023/09/15 01:06:43;;;;;;;5.78;3.72;;;;;;;-145.69;70.06;52131.50;5123680;27;20560;-82
2023/09/15 01:09:11;;;;;;;7.45;4.15;;;;;;;-145.69;70.36;52139.41;5129063;27;20201;-82
2023/09/15 01:11:37;;;;;;;6.38;4.10;;;;;;;-145.69;70.10;52190.91;5115110;27;20222;-81
2023/09/15 01:14:04;;;;;;;5.43;3.63;;;;;;;-145.69;70.63;52167.13;5114400;28;20210;-81
2023/09/15 01:16:37;;;;;;;6.55;4.40;;;;;;;-145.69;70.37;52165.16;5116765;27;20221;-81
2023/09/15 01:19:22;;;;;;;7.40;4.38;;;;;;;-145.69;70.39;52153.28;5095593;28;20245;-81
2023/09/15 01:22:23;;;;;;;6.95;3.90;;;;;;;-145.69;69.96;52184.97;5105902;27;20201;-81
2023/09/15 01:25:09;;;;;;;8.32;4.80;;;;;;;-145.69;70.54;52184.97;5098653;27;20633;-82
2023/09/15 01:27:52;;;;;;;13.40;4.82;;;;;;;-145.69;71.08;52149.31;5115080;27;20296;-82
2023/09/15 01:30:22;;;;;;;7.43;4.38;;;;;;;-145.69;71.00;52161.19;5114977;27;20205;-80
2023/09/15 01:32:50;;;;;;;9.70;4.85;;;;;;;-145.69;71.35;52153.28;5122606;27;20208;-81
2023/09/15 01:35:16;;;;;;;9.23;5.45;;;;;;;-145.69;71.22;52171.09;5106932;27;20197;-81
2023/09/15 01:37:43;;;;;;;9.52;5.75;;;;;;;-145.69;70.88;52179.03;5120728;27;20245;-81
2023/09/15 01:40:10;;;;;;;13.13;4.30;;;;;;;-145.69;70.73;52157.25;5126403;27;20571;-81
2023/09/15 01:42:39;;;;;;;7.60;4.95;;;;;;;-145.69;70.84;52171.09;5115624;27;20205;-81
2023/09/15 01:45:06;;;;;;;6.40;3.97;;;;;;;-145.69;70.48;52167.13;5120383;27;20216;-81
2023/09/15 01:47:36;;;;;;;7.70;4.18;;;;;;;-145.69;70.40;52127.53;5109181;27;20202;-80
2023/09/15 01:50:05;;;;;;;6.80;3.97;;;;;;;-145.69;70.55;52171.09;5114620;28;20201;-82
2023/09/15 01:52:32;;;;;;;6.82;4.18;;;;;;;-145.69;70.14;52155.25;5116424;27;20223;-82
2023/09/15 01:54:59;;;;;;;7.72;5.10;;;;;;;-145.69;71.39;52173.09;5115474;27;20213;-81
2023/09/15 01:57:26;;;;;;;8.65;5.00;;;;;;;-145.69;71.50;52151.28;5114921;27;20202;-81
2023/09/15 01:59:52;;;;;;;8.25;5.03;;;;;;;-145.69;71.09;52167.13;5116152;27;20221;-82
2023/09/15 02:02:19;;;;;;;11.65;4.65;;;;;;;-145.69;70.73;52139.41;5118377;27;20209;-81
2023/09/15 02:04:47;;;;;;;6.05;4.25;;;;;;;-145.69;70.87;52175.06;5107382;27;20214;-81
2023/09/15 02:07:13;;;;;;;7.15;5.03;;;;;;;-145.69;70.92;52173.09;5118497;27;20201;-81
2023/09/15 02:09:40;;;;;;;6.70;4.78;;;;;;;-145.69;70.68;52159.22;5117520;27;20205;-81
2023/09/15 02:12:07;;;;;;;8.32;5.30;;;;;;;-145.69;71.67;52177.03;5125671;27;20460;-81
2023/09/15 02:14:34;;;;;;;10.00;5.05;;;;;;;-145.69;71.57;52147.34;5115496;27;20200;-82
2023/09/15 02:17:01;;;;;;;9.40;5.00;;;;;;;-145.69;71.84;52165.16;5124181;27;20287;-81
2023/09/15 02:19:29;;;;;;;16.23;6.43;;;;;;;-145.69;71.20;52208.72;5118215;27;20192;-82
2023/09/15 02:21:56;;;;;;;7.28;4.43;;;;;;;-145.69;71.14;52139.41;5114155;27;20205;-81
2023/09/15 02:24:23;;;;;;;7.55;4.65;;;;;;;-145.69;70.95;52186.94;5105549;27;20193;-82
2023/09/15 02:26:50;;;;;;;7.82;4.95;;;;;;;-145.69;70.90;52167.13;5118266;27;20556;-82
2023/09/15 02:29:16;;;;;;;7.18;5.00;;;;;;;-145.69;71.38;52141.41;5113196;27;20194;-81
2023/09/15 02:31:42;;;;;;;8.40;5.18;;;;;;;-145.69;71.32;52163.19;5114135;28;20525;-81
2023/09/15 02:34:09;;;;;;;7.47;5.20;;;;;;;-145.69;71.52;52192.88;5113791;27;20212;-81
2023/09/15 02:36:35;;;;;;;9.55;5.35;;;;;;;-145.69;71.96;52190.91;5114455;27;20215;-80
2023/09/15 02:39:04;;;;;;;7.88;4.65;;;;;;;-145.69;71.42;52155.25;5117039;27;20288;-82
2023/09/15 02:41:31;;;;;;;7.97;4.80;;;;;;;-145.69;71.33;52127.53;5109853;28;20316;-81
2023/09/15 02:43:58;;;;;;;8.70;4.30;;;;;;;-145.69;71.32;52149.31;5114492;27;20292;-82
2023/09/15 02:46:24;;;;;;;6.75;4.20;;;;;;;-145.69;70.95;52159.22;5134301;27;20200;-81
2023/09/15 02:48:51;;;;;;;11.88;4.85;;;;;;;-145.69;71.45;52175.06;5135032;27;20201;-81
2023/09/15 02:51:18;;;;;;;8.40;5.10;;;;;;;-145.69;71.24;52155.25;5135064;27;20205;-81
2023/09/15 02:53:44;;;;;;;9.47;5.20;;;;;;;-145.69;71.05;52171.09;5130249;27;20648;-81
2023/09/15 02:56:12;;;;;;;8.43;5.18;;;;;;;-145.69;71.16;52192.88;5123902;27;20205;-82
2023/09/15 02:58:38;;;;;;;7.35;5.25;;;;;;;-145.69;71.07;52161.19;5109943;28;20659;-81
2023/09/15 03:01:12;;;;;;;9.43;4.85;;;;;;;-145.69;71.20;52167.13;5114150;28;20209;-82
2023/09/15 03:03:38;;;;;;;9.90;5.07;;;;;;;-145.69;71.12;52186.94;5123806;27;20192;-82
2023/09/15 03:06:06;;;;;;;8.50;5.13;;;;;;;-145.69;71.62;52179.03;5132849;27;20200;-82
2023/09/15 03:08:33;;;;;;;11.10;5.60;;;;;;;-145.69;71.42;52159.22;5114108;28;20209;-82
2023/09/15 03:11:00;;;;;;;9.65;5.55;;;;;;;-145.69;71.06;52186.94;5113291;28;20236;-81
2023/09/15 03:13:28;;;;;;;8.45;5.07;;;;;;;-145.69;71.01;52165.16;5108262;27;20635;-82
2023/09/15 03:15:54;;;;;;;9.10;5.03;;;;;;;-145.69;71.01;52131.50;5120880;27;20208;-82
2023/09/15 03:18:22;;;;;;;15.15;6.38;;;;;;;-145.69;72.26;52181.00;5116658;27;20233;-81
2023/09/15 03:20:48;;;;;;;10.23;5.67;;;;;;;-145.69;71.22;52179.03;5120205;27;20199;-81
2023/09/15 03:23:15;;;;;;;13.37;6.47;;;;;;;-145.69;71.20;52179.03;5114282;27;20206;-81
2023/09/15 03:25:42;;;;;;;9.43;5.82;;;;;;;-145.69;71.50;52175.06;5113658;27;20193;-82
2023/09/15 03:28:08;;;;;;;7.53;5.03;;;;;;;-145.69;70.96;52163.19;5113265;27;20197;-82
2023/09/15 03:30:36;;;;;;;9.43;5.15;;;;;;;-145.69;71.53;52186.94;5110397;27;20230;-82
2023/09/15 03:33:03;;;;;;;9.07;5.47;;;;;;;-145.69;71.52;52171.09;5118637;27;20201;-81
2023/09/15 03:35:29;;;;;;;8.82;5.15;;;;;;;-145.69;71.49;52147.34;5114902;27;20197;-82
2023/09/15 03:37:56;;;;;;;10.25;5.75;;;;;;;-145.69;71.55;52171.09;5113369;27;20724;-81
2023/09/15 03:40:24;;;;;;;8.30;5.40;;;;;;;-145.69;71.36;52181.00;5120151;27;20552;-81
2023/09/15 03:42:52;;;;;;;11.75;6.20;;;;;;;-145.69;71.13;52167.13;5112605;27;20202;-82
2023/09/15 03:45:18;;;;;;;10.30;5.97;;;;;;;-145.69;71.46;52181.00;5112693;28;20223;-81
2023/09/15 03:47:46;;;;;;;8.37;5.30;;;;;;;-145.69;71.35;52153.28;5111656;28;20200;-81
2023/09/15 03:50:19;;;;;;;10.13;6.37;;;;;;;-145.69;71.60;52165.16;5113900;28;20221;-81
2023/09/15 03:52:46;;;;;;;11.40;6.20;;;;;;;-145.69;71.44;52151.28;5114036;28;20201;-81
2023/09/15 03:55:13;;;;;;;10.13;6.43;;;;;;;-145.69;72.56;52167.13;5112731;27;20205;-81
2023/09/15 03:57:39;;;;;;;10.30;6.37;;;;;;;-145.69;71.35;52173.09;5111436;28;20195;-81
2023/09/15 04:00:11;;;;;;;9.77;5.97;;;;;;;-145.69;71.47;52159.22;5111267;27;20197;-81
2023/09/15 04:02:37;;;;;;;11.83;6.30;;;;;;;-145.69;71.59;52177.03;5122598;28;20197;-81
2023/09/15 04:05:07;;;;;;;9.70;6.10;;;;;;;-145.69;71.44;52153.28;5133535;27;20532;-81
2023/09/15 04:07:33;;;;;;;10.05;6.00;;;;;;;-145.69;71.57;52190.91;5110785;28;20197;-82
2023/09/15 04:10:00;;;;;;;10.87;5.90;;;;;;;-145.69;71.82;52181.00;5119638;27;20209;-81
2023/09/15 04:12:26;;;;;;;11.50;6.22;;;;;;;-145.69;72.41;52175.06;5112353;27;20207;-82
2023/09/15 04:14:52;;;;;;;14.05;7.10;;;;;;;-145.69;72.12;52190.91;5113003;28;20201;-82
2023/09/15 04:17:19;;;;;;;10.88;6.05;;;;;;;-145.69;71.65;52169.13;5118965;28;20240;-81
2023/09/15 04:19:45;;;;;;;9.90;6.07;;;;;;;-145.69;71.64;52200.81;5128775;28;20193;-81
2023/09/15 04:22:13;;;;;;;13.53;7.00;;;;;;;-145.69;72.55;52159.22;5116781;27;20575;-80
2023/09/15 04:24:40;;;;;;;12.80;6.47;;;;;;;-145.69;71.61;52155.25;5111733;28;20311;-81
2023/09/15 04:27:06;;;;;;;13.60;7.47;;;;;;;-145.69;72.51;52194.88;5115859;28;20200;-82
2023/09/15 04:29:33;;;;;;;12.80;7.10;;;;;;;-145.69;71.96;52175.06;5113053;28;20209;-82
2023/09/15 04:31:59;;;;;;;12.23;7.60;;;;;;;-145.69;72.18;52147.34;5114450;28;20224;-82
2023/09/15 04:34:26;;;;;;;12.07;7.43;;;;;;;-145.69;72.36;52159.22;5123158;27;20205;-81
2023/09/15 04:36:53;;;;;;;9.70;6.07;;;;;;;-145.69;71.54;52186.94;5116572;27;20201;-82
2023/09/15 04:39:21;;;;;;;14.90;6.47;;;;;;;-145.69;71.93;52175.06;5119056;27;20205;-81
2023/09/15 04:41:47;;;;;;;11.18;6.95;;;;;;;-145.69;71.70;52161.19;5117465;27;20204;-81
2023/09/15 04:44:14;;;;;;;15.33;7.07;;;;;;;-145.69;71.82;52175.06;5112818;27;20649;-81
2023/09/15 04:46:40;;;;;;;11.83;7.23;;;;;;;-145.69;71.87;52186.94;5109536;27;20639;-82
2023/09/15 04:49:07;;;;;;;18.60;7.40;;;;;;;-145.69;72.24;52196.84;5126061;27;20200;-82
2023/09/15 04:51:34;;;;;;;14.20;8.03;;;;;;;-145.69;73.70;52151.28;5137217;27;20224;-82
2023/09/15 04:54:00;;;;;;;17.90;8.80;;;;;;;-145.69;73.57;52202.78;5122184;27;20208;-83
2023/09/15 04:56:28;;;;;;;12.30;7.40;;;;;;;-145.69;72.55;52179.03;5118953;27;20197;-81
2023/09/15 04:58:58;;;;;;;15.37;7.27;;;;;;;-145.69;72.17;52194.88;5123976;27;20196;-82
2023/09/15 05:01:24;;;;;;;12.32;7.18;;;;;;;-145.69;72.12;52155.25;5113367;27;20801;-81
2023/09/15 05:03:51;;;;;;;10.93;6.47;;;;;;;-145.69;72.99;52175.06;5103460;28;20214;-82
2023/09/15 05:06:17;;;;;;;13.27;7.30;;;;;;;-145.69;72.61;52163.19;5095980;28;20194;-81
2023/09/15 05:08:44;;;;;;;13.73;8.43;;;;;;;-145.69;73.79;52182.97;5134909;27;20486;-81
2023/09/15 05:11:11;;;;;;;12.80;7.38;;;;;;;-145.69;72.66;52151.28;5119856;27;20265;-82
2023/09/15 05:13:39;;;;;;;11.48;7.28;;;;;;;-145.69;72.76;52190.91;5117702;27;20236;-81
2023/09/15 05:16:07;;;;;;;10.68;6.45;;;;;;;-145.69;72.96;52198.81;5116788;28;20193;-82
2023/09/15 05:18:33;;;;;;;10.10;6.40;;;;;;;-145.69;72.95;52167.13;5126826;27;20244;-80
2023/09/15 05:20:59;;;;;;;11.30;7.10;;;;;;;-145.69;72.84;52192.88;5117718;27;20216;-81
2023/09/15 05:23:26;;;;;;;12.32;7.07;;;;;;;-145.69;72.76;52143.38;5128215;27;20212;-81
2023/09/15 05:25:53;;;;;;;13.90;7.65;;;;;;;-145.69;71.95;52210.72;5119775;27;20648;-82
2023/09/15 05:28:20;;;;;;;13.07;7.20;;;;;;;-145.69;72.58;52181.00;5116885;27;20232;-81
2023/09/15 05:30:47;;;;;;;11.68;6.93;;;;;;;-145.69;72.12;52139.41;5115899;27;20225;-80
2023/09/15 05:33:16;;;;;;;15.23;7.60;;;;;;;-145.69;72.46;52163.19;5115569;27;20657;-81
2023/09/15 05:35:42;;;;;;;14.77;8.38;;;;;;;-145.69;71.86;52177.03;5120226;27;20193;-80
2023/09/15 05:38:09;;;;;;;18.13;7.47;;;;;;;-145.69;71.99;52171.09;5109482;27;20189;-80
2023/09/15 05:40:36;;;;;;;12.77;6.23;;;;;;;-145.69;71.82;52165.16;5116434;27;20200;-81
2023/09/15 05:43:02;;;;;;;11.45;6.80;;;;;;;-145.69;71.92;52175.06;5114709;27;20205;-81
2023/09/15 05:45:29;;;;;;;9.07;6.30;;;;;;;-145.69;71.95;52190.91;5119621;27;20238;-81
2023/09/15 05:47:58;;;;;;;9.35;5.85;;;;;;;-145.69;72.17;52155.25;5121601;27;20197;-82
2023/09/15 05:50:24;;;;;;;9.52;6.47;;;;;;;-145.69;72.34;52169.13;5113433;27;20280;-81
2023/09/15 05:52:51;;;;;;;9.00;5.95;;;;;;;-145.69;72.60;52198.81;5116896;27;20194;-81
2023/09/15 05:55:17;;;;;;;12.82;6.32;;;;;;;-145.69;72.58;52175.06;5120476;27;20209;-81
2023/09/15 05:57:44;;;;;;;15.40;7.75;;;;;;;-145.69;73.06;52159.22;5109795;27;20208;-81
2023/09/15 06:00:11;;;;;;;11.80;6.60;;;;;;;-145.69;72.66;52153.28;5107042;27;20548;-81
2023/09/15 06:02:38;;;;;;;13.55;7.05;;;;;;;-145.69;72.24;52179.03;5115674;27;20198;-81
2023/09/15 06:05:07;;;;;;;11.80;7.32;;;;;;;-145.69;72.55;52155.25;5108291;27;20185;-81
2023/09/15 06:07:34;;;;;;;13.38;7.40;;;;;;;-145.69;72.79;52182.97;5114397;27;20194;-81
2023/09/15 06:10:00;;;;;;;13.85;7.18;;;;;;;-145.69;72.83;52151.28;5122926;27;20185;-81
2023/09/15 06:12:27;;;;;;;16.83;7.72;;;;;;;-145.69;73.02;52171.09;5118346;27;20225;-81
2023/09/15 06:14:56;;;;;;;11.10;6.82;;;;;;;-145.69;72.99;52131.50;5116983;27;20670;-81
2023/09/15 06:17:23;;;;;;;13.38;7.80;;;;;;;-145.69;73.01;52131.50;5116463;27;20712;-81
2023/09/15 06:19:49;;;;;;;15.93;8.50;;;;;;;-145.69;72.71;52173.09;5102506;27;20198;-81
2023/09/15 06:22:17;;;;;;;14.63;8.07;;;;;;;-145.69;72.83;52153.28;5119363;27;20205;-81
2023/09/15 06:24:44;;;;;;;13.55;8.35;;;;;;;-145.69;72.73;52167.13;5114924;27;20200;-81
2023/09/15 06:27:10;;;;;;;14.80;7.75;;;;;;;-145.69;73.13;52173.09;5113611;27;20291;-81
2023/09/15 06:29:37;;;;;;;14.52;7.80;;;;;;;-145.69;72.80;52139.41;5113723;27;20216;-81
2023/09/15 06:32:04;;;;;;;17.35;8.88;;;;;;;-145.69;72.91;52157.25;5105735;27;20243;-81
2023/09/15 06:34:30;;;;;;;13.80;8.13;;;;;;;-145.69;73.00;52155.25;5119197;27;20197;-81
2023/09/15 06:36:57;;;;;;;14.38;8.00;;;;;;;-145.69;72.97;52155.25;5114512;27;20194;-80
2023/09/15 06:39:26;;;;;;;13.32;7.75;;;;;;;-145.69;72.83;52159.22;5115640;27;20202;-80
2023/09/15 06:41:53;;;;;;;15.85;8.38;;;;;;;-145.69;72.57;52153.28;5117151;27;20288;-81
2023/09/15 06:44:20;;;;;;;15.70;8.38;;;;;;;-145.69;72.67;52159.22;5113536;28;20292;-81
2023/09/15 06:46:46;;;;;;;15.50;8.77;;;;;;;-145.69;71.45;52186.94;5114477;28;20607;-81
2023/09/15 06:49:14;;;;;;;17.35;9.77;;;;;;;-145.69;70.68;52131.50;5112346;27;20197;-82
2023/09/15 06:51:41;;;;;;;19.42;9.48;;;;;;;-145.69;70.23;52147.34;5121711;27;20230;-82
2023/09/15 06:54:08;;;;;;;19.65;10.13;;;;;;;-145.69;71.37;52159.22;5109219;27;20201;-82
2023/09/15 06:56:35;;;;;;;18.77;10.10;;;;;;;-145.69;72.54;52147.34;5126815;27;20208;-82
2023/09/15 06:59:03;;;;;;;17.27;9.93;;;;;;;-145.69;72.19;52139.41;5109846;28;20212;-82
2023/09/15 07:01:29;;;;;;;17.55;10.07;;;;;;;-145.69;72.31;52123.56;5104692;27;20208;-81
2023/09/15 07:03:56;;;;;;;21.08;10.65;;;;;;;-145.69;72.34;52147.34;5114220;28;20197;-82
2023/09/15 07:06:22;;;;;;;17.33;9.45;;;;;;;-145.69;72.59;52137.44;5114313;28;20231;-82
2023/09/15 07:08:49;;;;;;;18.27;9.73;;;;;;;-145.69;72.88;52145.34;5114169;28;20212;-82
2023/09/15 07:11:16;;;;;;;19.60;10.90;;;;;;;-145.69;72.53;52137.44;5113438;27;20687;-82
2023/09/15 07:13:43;;;;;;;25.25;12.20;;;;;;;-145.69;72.74;52139.41;5117629;27;20196;-82
2023/09/15 07:16:10;;;;;;;21.02;11.15;;;;;;;-145.69;72.69;52135.47;5117794;27;20199;-82
2023/09/15 07:18:37;;;;;;;24.02;11.20;;;;;;;-145.69;72.56;52139.41;5112563;27;20224;-82
2023/09/15 07:21:03;;;;;;;22.02;11.55;;;;;;;-145.69;72.55;52135.47;5114646;27;20196;-81
2023/09/15 07:23:30;;;;;;;21.00;10.75;;;;;;;-145.69;72.37;52125.56;5116110;27;20200;-82
2023/09/15 07:25:56;;;;;;;23.48;11.57;;;;;;;-145.69;72.45;52129.50;5123063;27;20211;-81
2023/09/15 07:28:23;;;;;;;23.60;11.38;;;;;;;-145.69;72.73;52137.44;5122063;27;20200;-82
2023/09/15 07:30:51;;;;;;;23.70;11.90;;;;;;;-145.69;72.14;52127.53;5119679;27;20194;-82
2023/09/15 07:33:17;;;;;;;25.92;11.43;;;;;;;-145.69;72.05;52115.66;5121745;27;20317;-82
2023/09/15 07:35:43;;;;;;;27.17;12.57;;;;;;;-145.69;72.57;52115.66;5112918;27;20201;-82
2023/09/15 07:38:10;;;;;;;23.73;10.77;;;;;;;-145.69;72.39;52103.78;5113612;27;20189;-81
2023/09/15 07:40:36;;;;;;;22.15;11.18;;;;;;;-145.69;71.92;52099.81;5113168;27;20213;-82
2023/09/15 07:43:04;;;;;;;26.52;12.90;;;;;;;-145.69;72.71;52097.84;5115040;27;20204;-82
2023/09/15 07:45:30;;;;;;;26.10;11.73;;;;;;;-145.69;72.68;52131.50;5115642;27;20208;-82
2023/09/15 07:47:58;;;;;;;18.10;10.52;;;;;;;-145.69;71.77;52117.63;5105982;27;20276;-81
2023/09/15 07:50:25;;;;;;;20.67;11.18;;;;;;;-145.69;71.62;52115.66;5111417;28;20291;-82
2023/09/15 07:52:51;;;;;;;24.65;11.00;;;;;;;-145.69;72.26;52117.63;5110893;27;20580;-82
2023/09/15 07:55:18;;;;;;;26.85;11.65;;;;;;;-145.69;72.21;52103.78;5109626;27;20675;-82
2023/09/15 07:57:44;;;;;;;22.48;11.50;;;;;;;-145.69;70.85;52115.66;5117385;27;20201;-81
2023/09/15 08:00:12;;;;;;;25.17;12.68;;;;;;;-145.69;71.87;52105.75;5115439;27;20215;-82
2023/09/15 08:02:38;;;;;;;28.80;12.50;;;;;;;-145.69;70.65;52103.78;5116771;27;20217;-80
2023/09/15 08:05:07;;;;;;;21.60;10.73;;;;;;;-145.69;72.41;52048.31;5106991;28;20208;-81
2023/09/15 08:07:34;;;;;;;19.70;10.57;;;;;;;-145.69;68.60;52115.66;5105352;28;20190;-80
2023/09/15 08:10:01;;;;;;;14.80;8.52;;;;;;;-145.69;70.67;52083.97;5121259;28;20298;-80
2023/09/15 08:12:27;;;;;;;14.82;8.05;;;;;;;-145.69;69.43;52064.16;5116164;27;20625;-78
2023/09/15 08:14:54;;;;;;;16.60;8.77;;;;;;;-145.69;69.28;52091.88;5109192;27;20206;-80
2023/09/15 08:17:20;;;;;;;15.98;9.18;;;;;;;-145.69;68.05;52083.97;5117003;27;20228;-81
2023/09/15 08:19:47;;;;;;;11.10;7.43;;;;;;;-145.69;68.52;52070.09;5117694;27;20198;-79
2023/09/15 08:22:16;;;;;;;17.42;8.38;;;;;;;-145.69;68.07;52078.03;5119540;27;20284;-80
2023/09/15 08:24:42;;;;;;;11.65;7.03;;;;;;;-145.69;65.80;52107.72;5111906;27;20211;-77
2023/09/15 08:27:09;;;;;;;12.65;6.47;;;;;;;-145.69;66.69;52080.00;5116438;27;20529;-78
2023/09/15 08:29:35;;;;;;;12.48;7.25;;;;;;;-145.69;65.06;52082.00;5123611;27;20190;-79
2023/09/15 08:32:02;;;;;;;10.20;6.65;;;;;;;-145.69;64.94;52083.97;5114619;28;20229;-80
2023/09/15 08:34:28;;;;;;;11.25;6.82;;;;;;;-145.69;64.44;52072.09;5120233;27;20240;-80
2023/09/15 08:36:54;;;;;;;12.40;7.22;;;;;;;-145.69;64.85;52056.25;5120058;27;20200;-80
2023/09/15 08:39:22;;;;;;;11.95;7.05;;;;;;;-145.69;64.80;52103.78;5125300;27;20651;-79
2023/09/15 08:41:54;;;;;;;13.15;6.97;;;;;;;-145.69;64.19;52064.16;5115262;28;20201;-80
2023/09/15 08:44:22;;;;;;;10.45;6.95;;;;;;;-145.69;64.21;52064.16;5116632;28;20193;-80
2023/09/15 08:46:48;;;;;;;11.52;6.55;;;;;;;-145.69;64.76;52066.16;5114899;28;20597;-80
2023/09/15 08:49:16;;;;;;;11.93;6.80;;;;;;;-145.69;63.29;52066.16;5120707;27;20206;-80
2023/09/15 08:51:44;;;;;;;13.45;6.80;;;;;;;-145.69;62.81;52056.25;5114104;28;20766;-81
2023/09/15 08:54:11;;;;;;;8.88;6.00;;;;;;;-145.69;62.07;52044.38;5116601;28;20193;-79
2023/09/15 08:56:39;;;;;;;11.82;6.20;;;;;;;-145.69;61.82;52038.44;5127877;27;20205;-79
2023/09/15 08:59:08;;;;;;;11.65;6.50;;;;;;;-145.69;60.67;52076.03;5127308;27;20205;-81
2023/09/15 09:01:36;;;;;;;13.23;6.55;;;;;;;-145.69;59.99;52030.50;5117090;27;20284;-80
2023/09/15 09:04:03;;;;;;;9.68;6.13;;;;;;;-145.69;60.19;52080.00;5112369;27;20204;-82
2023/09/15 09:06:32;;;;;;;14.52;5.80;;;;;;;-145.69;61.06;52048.31;5110116;27;20197;-80
2023/09/15 09:08:59;;;;;;;15.05;6.70;;;;;;;-145.69;60.16;52093.88;5113180;27;20190;-80
2023/09/15 09:11:27;;;;;;;10.55;5.97;;;;;;;-145.69;59.32;52026.53;5112496;27;20201;-81
2023/09/15 09:13:55;;;;;;;10.60;6.20;;;;;;;-145.69;59.75;52052.28;5110264;28;20564;-81
2023/09/15 09:16:22;;;;;;;12.70;6.70;;;;;;;-145.69;59.19;52030.50;5117753;27;20197;-79
2023/09/15 09:18:56;;;;;;;12.80;6.53;;;;;;;-145.69;58.67;52034.47;5115464;28;20225;-79
2023/09/15 09:21:25;;;;;;;9.07;5.68;;;;;;;-145.69;58.09;52034.47;5115607;27;20604;-79
2023/09/15 09:23:51;;;;;;;7.18;5.18;;;;;;;-145.69;57.03;52020.59;5114589;27;20228;-78
2023/09/15 09:26:18;;;;;;;10.82;6.00;;;;;;;-145.69;58.08;52028.53;5115685;27;20664;-79
2023/09/15 09:28:44;;;;;;;9.35;5.78;;;;;;;-145.69;58.87;52036.44;5115794;27;20679;-80
2023/09/15 09:31:12;;;;;;;9.32;5.63;;;;;;;-145.69;59.68;52016.66;5114440;27;20221;-80
2023/09/15 09:33:39;;;;;;;11.90;4.95;;;;;;;-145.69;59.40;52028.53;5112357;27;20229;-80
2023/09/15 09:36:11;;;;;;;9.63;5.63;;;;;;;-145.69;57.43;52012.69;5115254;28;20228;-80
2023/09/15 09:38:41;;;;;;;7.00;4.90;;;;;;;-145.69;58.53;52034.47;5111819;28;20201;-79
2023/09/15 09:41:11;;;;;;;7.32;5.03;;;;;;;-145.69;58.49;52028.53;5117841;27;20206;-80
2023/09/15 09:43:43;;;;;;;7.30;4.93;;;;;;;-145.69;58.28;52028.53;5119927;27;20201;-80
2023/09/15 09:46:12;;;;;;;7.63;4.85;;;;;;;-145.69;57.38;52044.38;5116735;27;20212;-80
2023/09/15 09:48:40;;;;;;;8.85;5.00;;;;;;;-145.69;57.72;51998.81;5114670;27;20193;-80
2023/09/15 09:51:09;;;;;;;8.52;4.32;;;;;;;-145.69;56.57;52022.59;5110593;27;20204;-80
2023/09/15 09:53:36;;;;;;;6.97;4.63;;;;;;;-145.69;55.37;52002.78;5112867;27;20225;-80
2023/09/15 09:56:05;;;;;;;7.53;4.32;;;;;;;-145.69;53.95;52016.66;5115849;27;20279;-79
2023/09/15 09:58:32;;;;;;;8.60;4.55;;;;;;;-145.69;54.09;52012.69;5115616;27;20216;-78
2023/09/15 10:01:06;;;;;;;7.50;4.40;;;;;;;-145.69;53.71;51981.00;5123446;27;20651;-77
2023/09/15 10:03:34;;;;;;;10.00;4.45;;;;;;;-145.69;53.68;51996.84;5117804;27;20235;-79
2023/09/15 10:06:00;;;;;;;7.35;4.53;;;;;;;-145.69;52.97;52012.69;5105125;27;20201;-80
2023/09/15 10:08:27;;;;;;;9.10;5.13;;;;;;;-145.69;53.40;52016.66;5104121;27;20230;-78
2023/09/15 10:10:54;;;;;;;8.25;4.68;;;;;;;-145.69;52.45;51981.00;5108465;27;20197;-78
2023/09/15 10:13:22;;;;;;;7.40;5.20;;;;;;;-145.69;53.71;52004.75;5110434;27;20314;-79
2023/09/15 10:15:53;;;;;;;10.27;5.03;;;;;;;-145.69;53.31;51996.84;5116328;27;20193;-78
2023/09/15 10:18:20;;;;;;;8.20;4.30;;;;;;;-145.69;52.36;51961.19;5107392;27;20602;-78
2023/09/15 10:20:52;;;;;;;9.07;4.22;;;;;;;-145.69;52.60;51996.84;5114634;28;20202;-79
2023/09/15 10:23:19;;;;;;;8.18;4.88;;;;;;;-145.69;51.36;51955.25;5099804;27;20289;-79
2023/09/15 10:25:49;;;;;;;8.70;4.72;;;;;;;-145.69;52.06;52004.75;5112895;28;20197;-79
2023/09/15 10:28:17;;;;;;;7.70;4.63;;;;;;;-145.69;52.63;51984.97;5114852;28;20221;-78
2023/09/15 10:30:45;;;;;;;7.85;4.60;;;;;;;-145.69;52.26;52000.81;5117952;27;20191;-79
2023/09/15 10:33:12;;;;;;;5.65;3.75;;;;;;;-145.69;51.13;51965.16;5109589;28;20641;-80
2023/09/15 10:35:40;;;;;;;7.30;3.67;;;;;;;-145.69;47.80;51992.88;5109035;27;20280;-79
2023/09/15 10:38:09;;;;;;;4.72;3.35;;;;;;;-145.69;47.49;51981.00;5108287;27;20239;-82
2023/09/15 10:40:45;;;;;;;5.20;3.45;;;;;;;-145.69;48.00;51965.16;5106116;27;20202;-80
2023/09/15 10:43:13;;;;;;;4.88;3.60;;;;;;;-145.69;47.86;51949.31;5115193;27;20199;-81
2023/09/15 10:45:39;;;;;;;5.80;4.22;;;;;;;-145.69;47.71;51981.00;5110354;27;20197;-79
2023/09/15 10:48:06;;;;;;;5.05;3.42;;;;;;;-145.69;46.99;51937.44;5110712;28;20225;-79
2023/09/15 10:50:38;;;;;;;5.10;3.45;;;;;;;-145.69;47.55;51953.28;5113561;27;20203;-79
2023/09/15 10:53:12;;;;;;;5.65;3.60;;;;;;;-145.69;46.37;51919.63;5115024;27;20205;-78
2023/09/15 10:55:42;;;;;;;5.70;3.88;;;;;;;-145.69;45.07;51925.56;5111640;27;20560;-79
2023/09/15 10:58:10;;;;;;;4.07;3.30;;;;;;;-145.69;45.14;51931.50;5111955;27;20309;-79
2023/09/15 11:00:38;;;;;;;3.40;2.92;;;;;;;-145.69;44.48;51921.59;5116356;27;20207;-79
2023/09/15 11:03:06;;;;;;;4.95;3.72;;;;;;;-145.69;44.80;51923.56;5112707;27;20866;-80
2023/09/15 11:05:33;;;;;;;5.05;3.47;;;;;;;-145.69;43.05;51893.88;5110263;27;20212;-79
2023/09/15 11:08:01;;;;;;;4.75;3.35;;;;;;;-145.69;42.10;51889.91;5108929;27;20688;-79
2023/09/15 11:10:35;;;;;;;4.68;3.17;;;;;;;-145.69;41.48;51874.06;5107585;28;20228;-79
2023/09/15 11:13:11;;;;;;;5.75;3.47;;;;;;;-145.69;41.07;51885.94;5109525;27;20256;-80